Time;durP1;ratioP1;P1;durP2;ratioP2;P2;SDS_P1;SDS_P2;PMS_P1;PMS_P2;Temp;Humidity;BMP_temperature;BMP_pressure;BME280_temperature;BME280_humidity;BME280_pressure;Samples;Min_cycle;Max_cycle;Signal;HPM_P1;HPM_P2
2021/10/22 00:00:26;;;;;;;41.72;7.72;;;15.50;76.70;;;;;;5024799;28;20057;-62
2021/10/22 00:02:51;;;;;;;40.92;7.40;;;15.40;76.50;;;;;;5027541;28;20022;-62
2021/10/22 00:05:17;;;;;;;53.00;9.00;;;15.50;76.60;;;;;;5027380;28;20033;-61
2021/10/22 00:07:42;;;;;;;46.10;6.93;;;15.40;76.60;;;;;;5028960;28;20029;-61
2021/10/22 00:10:08;;;;;;;50.65;7.80;;;15.40;76.50;;;;;;5026012;28;20512;-62
2021/10/22 00:12:34;;;;;;;40.17;6.97;;;15.40;76.60;;;;;;5026245;28;20400;-62
2021/10/22 00:14:59;;;;;;;56.03;7.88;;;15.40;76.80;;;;;;5025761;28;20026;-62
2021/10/22 00:17:25;;;;;;;50.63;8.32;;;15.40;76.80;;;;;;5024395;28;20040;-62
2021/10/22 00:19:50;;;;;;;54.30;7.05;;;15.40;76.80;;;;;;5024550;28;20049;-62
2021/10/22 00:22:16;;;;;;;56.20;7.82;;;15.40;76.80;;;;;;5024814;28;20045;-61
2021/10/22 00:24:42;;;;;;;37.65;6.43;;;15.40;76.90;;;;;;5024661;28;20028;-62
2021/10/22 00:27:07;;;;;;;50.17;7.13;;;15.40;77.00;;;;;;5026865;28;20076;-62
2021/10/22 00:29:33;;;;;;;35.05;6.85;;;15.40;77.00;;;;;;5026176;28;20056;-62
2021/10/22 00:31:58;;;;;;;51.67;7.63;;;15.40;77.10;;;;;;5023125;28;20053;-62
2021/10/22 00:34:24;;;;;;;50.65;7.43;;;15.30;77.00;;;;;;5025939;28;20033;-62
2021/10/22 00:36:50;;;;;;;37.83;7.25;;;15.30;77.20;;;;;;5024926;28;20057;-61
2021/10/22 00:39:15;;;;;;;48.72;7.53;;;15.30;77.20;;;;;;5024190;28;20042;-62
2021/10/22 00:41:41;;;;;;;34.92;6.90;;;15.30;77.40;;;;;;5024225;28;20448;-62
2021/10/22 00:44:07;;;;;;;38.55;6.72;;;15.20;77.30;;;;;;5008881;28;20037;-62
2021/10/22 00:46:35;;;;;;;36.08;7.53;;;15.30;77.40;;;;;;5026874;28;20057;-62
2021/10/22 00:49:00;;;;;;;42.10;6.28;;;15.30;77.60;;;;;;5024417;28;20540;-61
2021/10/22 00:51:27;;;;;;;41.38;7.78;;;15.20;77.60;;;;;;5024779;28;20105;-62
2021/10/22 00:53:52;;;;;;;32.17;5.95;;;15.30;77.70;;;;;;5026991;28;20029;-61
2021/10/22 00:56:18;;;;;;;46.97;5.72;;;15.20;77.70;;;;;;5025578;28;20531;-61
2021/10/22 00:58:43;;;;;;;42.10;6.93;;;15.20;77.80;;;;;;5009560;28;20130;-63
2021/10/22 01:01:09;;;;;;;22.77;5.60;;;15.20;77.90;;;;;;5023283;28;20025;-62
2021/10/22 01:03:34;;;;;;;31.77;5.20;;;15.20;78.00;;;;;;5023272;28;20037;-62
2021/10/22 01:06:01;;;;;;;19.45;4.72;;;15.20;78.00;;;;;;5022768;28;20472;-63
2021/10/22 01:08:28;;;;;;;23.73;4.93;;;15.20;78.10;;;;;;5009690;28;20028;-62
2021/10/22 01:10:53;;;;;;;25.05;4.75;;;15.20;78.20;;;;;;5022668;28;20127;-62
2021/10/22 01:13:19;;;;;;;26.52;4.70;;;15.10;78.30;;;;;;5024607;28;20037;-63
2021/10/22 01:15:45;;;;;;;23.52;5.20;;;15.10;78.30;;;;;;5023071;28;20037;-61
2021/10/22 01:18:10;;;;;;;26.52;4.75;;;15.10;78.40;;;;;;5023713;28;20179;-62
2021/10/22 01:20:38;;;;;;;22.45;4.57;;;15.10;78.50;;;;;;5024455;28;20035;-62
2021/10/22 01:23:03;;;;;;;19.00;4.35;;;15.10;78.50;;;;;;5025152;28;20021;-62
2021/10/22 01:25:29;;;;;;;20.15;4.05;;;15.10;78.60;;;;;;5027099;28;20034;-61
2021/10/22 01:27:55;;;;;;;19.33;4.40;;;15.00;78.60;;;;;;5024659;28;20033;-62
2021/10/22 01:30:22;;;;;;;19.70;4.15;;;15.00;78.70;;;;;;5022602;28;20057;-61
2021/10/22 01:32:52;;;;;;;21.50;4.65;;;15.00;78.70;;;;;;5007415;28;20499;-62
2021/10/22 01:35:18;;;;;;;16.42;4.28;;;15.00;78.80;;;;;;5022296;28;20029;-62
2021/10/22 01:37:44;;;;;;;17.38;3.20;;;15.00;78.90;;;;;;5024606;28;20049;-62
2021/10/22 01:40:10;;;;;;;23.48;3.40;;;15.00;79.00;;;;;;5023885;28;20159;-62
2021/10/22 01:42:36;;;;;;;18.92;3.65;;;15.00;79.00;;;;;;5024371;28;20132;-62
2021/10/22 01:45:01;;;;;;;20.10;4.00;;;14.90;79.10;;;;;;5021113;28;20060;-61
2021/10/22 01:47:27;;;;;;;11.98;3.63;;;14.90;79.10;;;;;;5022524;28;20430;-61
2021/10/22 01:49:53;;;;;;;17.85;3.40;;;14.90;79.20;;;;;;5022460;28;20038;-63
2021/10/22 01:52:19;;;;;;;14.75;3.15;;;14.90;79.50;;;;;;5006131;28;20029;-62
2021/10/22 01:54:44;;;;;;;13.98;2.95;;;14.90;79.40;;;;;;5024482;28;20075;-62
2021/10/22 01:57:11;;;;;;;11.30;2.72;;;14.90;79.50;;;;;;5024871;28;20041;-63
2021/10/22 01:59:37;;;;;;;13.75;3.22;;;14.90;79.50;;;;;;5007685;28;20714;-62
2021/10/22 02:02:02;;;;;;;13.02;2.97;;;14.90;79.50;;;;;;5007379;28;20180;-61
2021/10/22 02:04:28;;;;;;;8.55;2.63;;;14.90;79.60;;;;;;5025424;28;20041;-62
2021/10/22 02:06:54;;;;;;;14.63;3.05;;;14.90;79.60;;;;;;5007429;28;20037;-63
2021/10/22 02:09:19;;;;;;;13.30;2.95;;;14.80;79.70;;;;;;5021793;28;20489;-62
2021/10/22 02:11:46;;;;;;;16.58;2.55;;;14.80;79.80;;;;;;5022242;28;20520;-61
2021/10/22 02:14:11;;;;;;;8.95;2.40;;;14.80;79.90;;;;;;5024755;28;20113;-62
2021/10/22 02:16:37;;;;;;;20.23;3.33;;;14.80;79.90;;;;;;5025551;28;20101;-62
2021/10/22 02:19:03;;;;;;;7.78;2.25;;;14.80;80.00;;;;;;5021796;28;20037;-63
2021/10/22 02:21:28;;;;;;;14.20;2.60;;;14.80;80.00;;;;;;5004872;28;20025;-62
2021/10/22 02:23:54;;;;;;;8.32;2.30;;;14.80;80.10;;;;;;5020247;28;20059;-62
2021/10/22 02:26:19;;;;;;;11.70;2.70;;;14.80;80.20;;;;;;5024504;28;20548;-65
2021/10/22 02:28:45;;;;;;;12.65;2.55;;;14.80;80.30;;;;;;5023496;28;20462;-62
2021/10/22 02:31:10;;;;;;;13.65;2.75;;;14.80;80.30;;;;;;5021296;28;20159;-63
2021/10/22 02:33:36;;;;;;;11.18;3.03;;;14.70;80.30;;;;;;5024077;28;20112;-62
2021/10/22 02:36:01;;;;;;;9.73;2.20;;;14.70;80.40;;;;;;5018331;28;20493;-61
2021/10/22 02:38:27;;;;;;;9.75;2.58;;;14.70;80.40;;;;;;5022371;28;20866;-62
2021/10/22 02:40:52;;;;;;;6.75;2.00;;;14.70;80.50;;;;;;5024947;28;21365;-61
2021/10/22 02:43:18;;;;;;;13.55;2.53;;;14.70;80.60;;;;;;5004707;28;20413;-62
2021/10/22 02:45:43;;;;;;;8.93;2.30;;;14.70;80.60;;;;;;5021211;28;20033;-62
2021/10/22 02:48:09;;;;;;;8.30;2.22;;;14.70;80.70;;;;;;5022918;28;20076;-62
2021/10/22 02:50:34;;;;;;;10.70;2.47;;;14.70;80.70;;;;;;5020435;28;20417;-62
2021/10/22 02:53:01;;;;;;;9.05;2.55;;;14.70;80.70;;;;;;5023024;28;20034;-61
2021/10/22 02:55:26;;;;;;;7.30;2.35;;;14.70;80.70;;;;;;5025188;28;20021;-63
2021/10/22 02:57:52;;;;;;;7.68;2.47;;;14.70;80.80;;;;;;5020489;28;20033;-62
2021/10/22 03:00:17;;;;;;;9.48;2.65;;;14.60;80.70;;;;;;5019812;28;20044;-62
2021/10/22 03:02:45;;;;;;;10.40;2.67;;;14.70;80.90;;;;;;5022437;28;20067;-63
2021/10/22 03:05:11;;;;;;;7.18;2.00;;;14.60;80.90;;;;;;5022912;28;20030;-62
2021/10/22 03:07:37;;;;;;;7.10;2.33;;;14.60;81.00;;;;;;5023810;28;20595;-61
2021/10/22 03:10:07;;;;;;;6.75;2.13;;;14.60;81.10;;;;;;5023655;28;20432;-61
2021/10/22 03:12:33;;;;;;;11.30;2.22;;;14.60;81.20;;;;;;5006008;28;20421;-63
2021/10/22 03:14:58;;;;;;;9.52;2.17;;;14.60;81.30;;;;;;5023305;28;20391;-61
2021/10/22 03:17:24;;;;;;;4.57;1.67;;;14.60;81.20;;;;;;5023936;28;20120;-62
2021/10/22 03:19:49;;;;;;;7.25;2.00;;;14.60;81.30;;;;;;5023687;28;20037;-61
2021/10/22 03:22:15;;;;;;;7.13;2.28;;;14.60;81.40;;;;;;5022846;28;20034;-62
2021/10/22 03:24:41;;;;;;;7.13;2.40;;;14.60;81.50;;;;;;5024396;28;20040;-61
2021/10/22 03:27:10;;;;;;;6.43;1.92;;;14.50;81.50;;;;;;5022322;28;20064;-63
2021/10/22 03:29:36;;;;;;;8.07;2.30;;;14.50;81.50;;;;;;5019776;28;20034;-61
2021/10/22 03:32:02;;;;;;;7.47;2.47;;;14.50;81.50;;;;;;5024171;28;20040;-62
2021/10/22 03:34:27;;;;;;;10.23;2.10;;;14.50;81.60;;;;;;5003646;28;20091;-62
2021/10/22 03:36:53;;;;;;;6.38;1.83;;;14.50;81.70;;;;;;5022416;28;20057;-62
2021/10/22 03:39:18;;;;;;;8.50;1.90;;;14.50;81.70;;;;;;5021674;28;20108;-62
2021/10/22 03:41:44;;;;;;;10.27;2.13;;;14.40;81.70;;;;;;5024425;28;20051;-62
2021/10/22 03:44:09;;;;;;;8.10;2.40;;;14.40;81.70;;;;;;5025166;28;20492;-62
2021/10/22 03:46:35;;;;;;;7.22;2.00;;;14.40;81.80;;;;;;5024455;28;20468;-62
2021/10/22 03:49:00;;;;;;;8.65;2.33;;;14.40;81.80;;;;;;5021644;28;20061;-63
2021/10/22 03:51:26;;;;;;;4.97;1.90;;;14.40;81.80;;;;;;5004815;28;20029;-62
2021/10/22 03:53:51;;;;;;;10.02;2.60;;;14.40;81.80;;;;;;5021810;28;20049;-61
2021/10/22 03:56:17;;;;;;;5.57;1.90;;;14.40;81.90;;;;;;5006268;28;20029;-62
2021/10/22 03:58:42;;;;;;;7.18;1.95;;;14.40;82.00;;;;;;5024161;28;20045;-62
2021/10/22 04:01:08;;;;;;;5.35;1.92;;;14.40;82.00;;;;;;5022599;28;20034;-63
2021/10/22 04:03:34;;;;;;;6.63;1.98;;;14.40;82.10;;;;;;5022246;28;20037;-61
2021/10/22 04:06:00;;;;;;;5.22;2.22;;;14.40;82.10;;;;;;5021124;28;20120;-62
2021/10/22 04:08:26;;;;;;;7.53;1.88;;;14.40;82.10;;;;;;5006328;28;20432;-62
2021/10/22 04:10:51;;;;;;;7.25;2.15;;;14.30;82.10;;;;;;5023559;28;20026;-62
2021/10/22 04:13:17;;;;;;;7.47;1.88;;;14.30;82.20;;;;;;5023265;28;20540;-62
2021/10/22 04:15:43;;;;;;;5.30;1.90;;;14.40;82.30;;;;;;5005647;28;20029;-62
2021/10/22 04:18:09;;;;;;;7.72;1.85;;;14.30;82.30;;;;;;5022613;28;20013;-62
2021/10/22 04:20:35;;;;;;;6.43;1.77;;;14.30;82.30;;;;;;5019918;28;20037;-61
2021/10/22 04:23:00;;;;;;;7.10;2.03;;;14.30;82.40;;;;;;5023535;28;20041;-62
2021/10/22 04:25:27;;;;;;;7.75;2.00;;;14.30;82.50;;;;;;5024977;28;20024;-63
2021/10/22 04:27:52;;;;;;;6.22;1.80;;;14.30;82.50;;;;;;5025772;28;20021;-62
2021/10/22 04:30:18;;;;;;;6.00;1.52;;;14.30;82.60;;;;;;5018155;28;20028;-61
2021/10/22 04:32:43;;;;;;;5.18;2.08;;;14.30;82.70;;;;;;5026740;28;20217;-62
2021/10/22 04:35:09;;;;;;;4.95;1.70;;;14.30;82.70;;;;;;5025580;28;20037;-61
2021/10/22 04:37:46;;;;;;;8.38;1.90;;;14.30;82.80;;;;;;5009299;28;20032;-62
2021/10/22 04:40:31;;;;;;;5.97;1.77;;;14.20;82.90;;;;;;5025315;28;20026;-62
2021/10/22 04:42:58;;;;;;;6.95;1.73;;;14.20;83.00;;;;;;5025602;28;20049;-62
2021/10/22 04:45:23;;;;;;;6.55;1.70;;;14.20;83.10;;;;;;5025347;28;20056;-62
2021/10/22 04:47:49;;;;;;;4.38;1.67;;;14.20;83.20;;;;;;5025804;28;20046;-62
2021/10/22 04:50:14;;;;;;;6.45;1.77;;;14.20;83.30;;;;;;5024876;28;20086;-62
2021/10/22 04:52:40;;;;;;;6.25;1.40;;;14.20;83.40;;;;;;5027170;28;20055;-62
2021/10/22 04:55:06;;;;;;;7.10;2.08;;;14.20;83.50;;;;;;5025180;28;20071;-62
2021/10/22 04:57:32;;;;;;;6.97;1.85;;;14.10;83.50;;;;;;5009284;28;20618;-62
2021/10/22 04:59:57;;;;;;;3.67;1.65;;;14.10;83.60;;;;;;5024360;28;20072;-61
2021/10/22 05:02:23;;;;;;;4.88;1.80;;;14.20;83.70;;;;;;5026634;28;20034;-62
2021/10/22 05:04:48;;;;;;;7.70;1.95;;;14.10;83.70;;;;;;5024094;28;20037;-62
2021/10/22 05:07:14;;;;;;;5.10;1.80;;;14.00;83.70;;;;;;5028150;28;20026;-62
2021/10/22 05:09:39;;;;;;;4.93;1.50;;;14.20;83.90;;;;;;5021653;28;20404;-62
2021/10/22 05:12:06;;;;;;;4.15;1.30;;;14.10;83.80;;;;;;5024306;28;20026;-62
2021/10/22 05:14:35;;;;;;;5.00;1.60;;;14.10;83.90;;;;;;5026851;28;20025;-62
2021/10/22 05:17:00;;;;;;;6.05;1.40;;;14.20;83.90;;;;;;5027420;28;20060;-61
2021/10/22 05:19:29;;;;;;;4.05;1.75;;;14.10;83.90;;;;;;5021298;28;22334;-62
2021/10/22 05:21:55;;;;;;;6.15;1.85;;;14.10;83.90;;;;;;5008071;28;20054;-62
2021/10/22 05:24:21;;;;;;;4.13;1.35;;;14.10;84.00;;;;;;5025359;28;20025;-61
2021/10/22 05:26:47;;;;;;;3.80;1.58;;;14.10;84.10;;;;;;5008310;28;20389;-61
2021/10/22 05:29:12;;;;;;;5.90;1.40;;;14.10;84.20;;;;;;5021895;28;20067;-62
2021/10/22 05:31:38;;;;;;;6.15;1.77;;;14.10;84.30;;;;;;5026480;28;20098;-62
2021/10/22 05:34:03;;;;;;;7.10;1.60;;;14.10;84.30;;;;;;5020260;28;20041;-62
2021/10/22 05:36:29;;;;;;;5.25;2.10;;;14.00;84.20;;;;;;5024988;28;20354;-62
2021/10/22 05:38:54;;;;;;;4.65;1.88;;;14.00;84.30;;;;;;5016307;28;20045;-62
2021/10/22 05:41:20;;;;;;;3.35;1.50;;;14.10;84.40;;;;;;5023657;28;20531;-62
2021/10/22 05:43:45;;;;;;;6.10;1.67;;;14.10;84.40;;;;;;5024332;28;20468;-61
2021/10/22 05:46:11;;;;;;;3.92;1.42;;;14.10;84.50;;;;;;5024794;28;20421;-62
2021/10/22 05:48:36;;;;;;;6.53;1.60;;;14.10;84.50;;;;;;5025425;28;20086;-62
2021/10/22 05:51:02;;;;;;;3.22;1.60;;;14.10;84.50;;;;;;5019966;28;20098;-63
2021/10/22 05:53:28;;;;;;;5.25;1.60;;;14.10;84.60;;;;;;5005528;28;20137;-62
2021/10/22 05:55:53;;;;;;;3.13;1.92;;;14.00;84.60;;;;;;5021978;28;20523;-63
2021/10/22 05:58:20;;;;;;;6.30;1.73;;;14.00;84.70;;;;;;5024983;28;20052;-62
2021/10/22 06:00:46;;;;;;;4.43;1.70;;;14.00;84.90;;;;;;5017614;28;20061;-62
2021/10/22 06:03:11;;;;;;;6.18;1.77;;;14.00;84.90;;;;;;5020622;28;20132;-61
2021/10/22 06:05:39;;;;;;;7.75;2.33;;;14.00;85.60;;;;;;5003610;28;20099;-62
2021/10/22 06:08:05;;;;;;;12.43;2.47;;;14.00;84.90;;;;;;5020851;28;20041;-63
2021/10/22 06:10:30;;;;;;;28.35;3.80;;;14.00;84.90;;;;;;5021985;28;20357;-61
2021/10/22 06:12:56;;;;;;;55.25;4.65;;;14.10;85.00;;;;;;5004118;28;20128;-62
2021/10/22 06:15:22;;;;;;;70.85;5.45;;;14.00;85.00;;;;;;5022423;28;20087;-62
2021/10/22 06:17:47;;;;;;;29.77;3.63;;;14.10;85.10;;;;;;5016172;28;20603;-62
2021/10/22 06:20:14;;;;;;;47.20;5.20;;;14.00;85.00;;;;;;5018919;28;20045;-61
2021/10/22 06:25:24;;;;;;;45.75;5.18;;;14.10;85.20;;;;;;5023087;28;20507;-61
2021/10/22 06:27:49;;;;;;;77.68;7.80;;;14.10;85.30;;;;;;5019017;28;20033;-61
2021/10/22 06:30:16;;;;;;;41.70;5.53;;;14.10;85.50;;;;;;5018410;28;20033;-62
2021/10/22 06:32:42;;;;;;;42.88;5.47;;;14.10;85.50;;;;;;5019206;28;20113;-62
2021/10/22 06:35:08;;;;;;;54.15;6.05;;;14.10;86.20;;;;;;5019908;28;20094;-62
2021/10/22 06:37:33;;;;;;;62.78;7.78;;;14.10;85.80;;;;;;5021038;28;20116;-62
2021/10/22 06:39:59;;;;;;;67.82;7.00;;;14.00;85.90;;;;;;5021447;28;20048;-62
2021/10/22 06:42:24;;;;;;;48.60;4.80;;;14.10;86.00;;;;;;5022458;28;20067;-62
2021/10/22 06:44:50;;;;;;;63.67;6.78;;;14.10;86.00;;;;;;5017521;28;20064;-62
2021/10/22 06:47:16;;;;;;;50.63;6.70;;;14.10;86.10;;;;;;5023067;28;20025;-62
2021/10/22 06:49:41;;;;;;;51.95;6.38;;;14.10;86.20;;;;;;5019150;28;20473;-62
2021/10/22 06:52:07;;;;;;;53.72;6.20;;;14.10;86.40;;;;;;5018383;28;20044;-62
2021/10/22 06:54:32;;;;;;;57.53;7.40;;;14.10;86.60;;;;;;5013607;28;20175;-62
2021/10/22 06:56:58;;;;;;;70.57;6.30;;;14.10;86.50;;;;;;5020278;28;20456;-62
2021/10/22 06:59:24;;;;;;;44.50;5.50;;;14.10;86.70;;;;;;5017079;28;20036;-62
2021/10/22 07:01:49;;;;;;;46.85;5.00;;;14.10;86.80;;;;;;5018385;28;20041;-62
2021/10/22 07:04:15;;;;;;;36.28;3.90;;;14.10;86.90;;;;;;5022730;28;20041;-62
2021/10/22 07:09:25;;;;;;;26.90;4.28;;;14.00;87.00;;;;;;5020503;28;20036;-62
2021/10/22 07:11:50;;;;;;;33.95;4.80;;;14.00;87.00;;;;;;5018106;28;21338;-62
2021/10/22 07:14:16;;;;;;;53.30;4.80;;;14.00;87.10;;;;;;5021071;28;20034;-63
2021/10/22 07:16:42;;;;;;;56.08;6.65;;;14.00;87.10;;;;;;5016437;28;20033;-64
2021/10/22 07:19:08;;;;;;;50.40;6.45;;;14.00;87.10;;;;;;5021056;28;20033;-62
2021/10/22 07:21:37;;;;;;;51.65;6.97;;;14.00;87.10;;;;;;5003349;28;20041;-62
2021/10/22 07:24:10;;;;;;;75.53;6.22;;;14.00;87.20;;;;;;5021569;28;20048;-62
2021/10/22 07:26:36;;;;;;;49.08;6.07;;;13.90;87.40;;;;;;5020399;28;20029;-62
2021/10/22 07:29:02;;;;;;;35.53;4.50;;;14.00;87.40;;;;;;5018583;28;20147;-61
2021/10/22 07:31:27;;;;;;;40.35;4.82;;;13.90;87.20;;;;;;5019949;28;20464;-62
2021/10/22 07:33:53;;;;;;;36.05;4.93;;;13.90;87.20;;;;;;5019535;28;20507;-61
2021/10/22 07:36:19;;;;;;;42.97;5.00;;;13.90;87.30;;;;;;5015844;28;20048;-61
2021/10/22 07:38:44;;;;;;;69.15;6.65;;;13.90;87.20;;;;;;4998566;28;20441;-61
2021/10/22 07:41:12;;;;;;;42.47;6.28;;;13.90;87.10;;;;;;5012562;28;20025;-61
2021/10/22 07:43:37;;;;;;;46.83;5.53;;;13.90;87.00;;;;;;5014669;28;20049;-61
2021/10/22 07:46:03;;;;;;;46.42;5.18;;;14.00;87.10;;;;;;5020324;28;20048;-62
2021/10/22 07:48:29;;;;;;;50.45;6.85;;;14.00;87.10;;;;;;5017109;28;20040;-62
2021/10/22 07:50:54;;;;;;;45.47;5.95;;;14.00;87.00;;;;;;5003729;28;20072;-61
2021/10/22 07:53:20;;;;;;;33.55;4.68;;;14.00;87.10;;;;;;5004595;28;20029;-62
2021/10/22 07:55:46;;;;;;;43.53;5.70;;;14.10;86.90;;;;;;5019703;28;20033;-62
2021/10/22 07:58:12;;;;;;;40.92;5.00;;;14.00;87.00;;;;;;5020572;28;20121;-62
2021/10/22 08:00:37;;;;;;;42.13;5.70;;;14.00;86.80;;;;;;5020116;28;20120;-62
2021/10/22 08:03:03;;;;;;;52.30;5.45;;;14.00;86.80;;;;;;5018370;28;20054;-62
2021/10/22 08:05:28;;;;;;;39.85;5.60;;;14.00;86.90;;;;;;5020082;28;20108;-62
2021/10/22 08:07:54;;;;;;;54.72;5.25;;;14.00;86.80;;;;;;5027463;28;20048;-62
2021/10/22 08:10:21;;;;;;;50.67;5.47;;;14.10;86.70;;;;;;5025118;28;20056;-62
2021/10/22 08:12:47;;;;;;;44.33;5.70;;;14.00;86.60;;;;;;5026736;28;20041;-62
2021/10/22 08:15:12;;;;;;;47.25;6.22;;;14.00;86.50;;;;;;5024354;28;20088;-62
2021/10/22 08:17:38;;;;;;;38.47;4.20;;;14.10;86.50;;;;;;5023562;28;20659;-61
2021/10/22 08:20:07;;;;;;;30.30;4.47;;;14.00;86.60;;;;;;5021269;28;20071;-62
2021/10/22 08:22:32;;;;;;;29.58;4.50;;;14.00;86.30;;;;;;5001814;28;20037;-62
2021/10/22 08:25:11;;;;;;;68.68;7.68;;;14.00;86.10;;;;;;5006244;28;20067;-62
2021/10/22 08:27:44;;;;;;;59.97;7.88;;;14.00;86.20;;;;;;5022728;28;20021;-61
2021/10/22 08:30:11;;;;;;;40.72;5.90;;;14.10;86.60;;;;;;5001354;28;20042;-62
2021/10/22 08:32:37;;;;;;;44.42;5.68;;;14.10;86.10;;;;;;5019753;28;20029;-62
2021/10/22 08:35:05;;;;;;;70.82;7.82;;;14.10;86.00;;;;;;5024255;28;20032;-61
2021/10/22 08:37:33;;;;;;;57.90;5.60;;;14.10;85.90;;;;;;5022588;28;20029;-61
2021/10/22 08:39:59;;;;;;;68.25;7.38;;;14.10;85.80;;;;;;5007496;28;20041;-62
2021/10/22 08:42:25;;;;;;;51.90;5.82;;;14.10;85.70;;;;;;5007675;28;20037;-61
2021/10/22 08:44:54;;;;;;;62.55;7.88;;;14.20;85.70;;;;;;5006761;28;20048;-61
2021/10/22 08:47:21;;;;;;;61.67;7.00;;;14.20;85.60;;;;;;5025308;28;20042;-61
2021/10/22 08:49:47;;;;;;;57.80;7.63;;;14.10;85.70;;;;;;5025913;28;20041;-61
2021/10/22 08:52:12;;;;;;;69.82;7.25;;;14.20;85.80;;;;;;5026175;28;21864;-61
2021/10/22 08:54:39;;;;;;;87.60;8.95;;;14.20;86.20;;;;;;5024718;28;20048;-60
2021/10/22 08:57:05;;;;;;;72.45;8.77;;;14.20;86.10;;;;;;5025421;28;20426;-61
2021/10/22 08:59:31;;;;;;;132.57;12.98;;;14.30;86.00;;;;;;5018728;28;20073;-61
2021/10/22 09:02:30;;;;;;;148.80;15.00;;;14.20;86.20;;;;;;5022201;28;20048;-61
2021/10/22 09:04:59;;;;;;;105.38;11.20;;;14.30;86.30;;;;;;5015842;28;20034;-61
2021/10/22 09:07:41;;;;;;;117.43;11.52;;;14.30;87.00;;;;;;5019437;28;20025;-61
2021/10/22 09:10:09;;;;;;;91.22;9.45;;;14.20;86.30;;;;;;5024379;28;20086;-60
2021/10/22 09:12:49;;;;;;;77.18;9.63;;;14.30;86.10;;;;;;5025663;28;20045;-61
2021/10/22 09:15:19;;;;;;;95.68;11.07;;;14.30;86.40;;;;;;5026312;28;20690;-60
2021/10/22 09:17:45;;;;;;;94.85;12.32;;;14.30;86.30;;;;;;5004975;28;20056;-61
2021/10/22 09:20:12;;;;;;;138.93;13.27;;;14.30;86.20;;;;;;5024982;28;20649;-60
2021/10/22 09:22:38;;;;;;;106.38;11.52;;;14.30;86.30;;;;;;5007328;28;20036;-61
2021/10/22 09:25:16;;;;;;;124.95;13.40;;;14.30;86.30;;;;;;5021293;28;20078;-61
2021/10/22 09:27:47;;;;;;;174.57;18.15;;;14.30;85.90;;;;;;5025856;28;20025;-61
2021/10/22 09:30:30;;;;;;;108.22;10.50;;;14.40;86.80;;;;;;5022178;28;20079;-60
2021/10/22 09:32:57;;;;;;;274.35;24.48;;;14.40;86.30;;;;;;5021955;28;20049;-61
2021/10/22 09:35:44;;;;;;;134.05;13.30;;;14.40;86.30;;;;;;5018109;28;20154;-60
2021/10/22 09:38:13;;;;;;;107.95;13.18;;;14.40;86.40;;;;;;5019209;28;20588;-61
2021/10/22 09:40:39;;;;;;;83.35;10.93;;;14.40;86.30;;;;;;5022892;28;20030;-61
2021/10/22 09:43:15;;;;;;;123.75;14.18;;;14.40;86.10;;;;;;5019653;28;20478;-61
2021/10/22 09:45:41;;;;;;;145.23;16.08;;;14.40;86.50;;;;;;5017222;28;20033;-61
2021/10/22 09:48:28;;;;;;;179.00;17.98;;;14.40;86.60;;;;;;5017385;28;20425;-60
2021/10/22 09:50:58;;;;;;;154.20;16.95;;;14.40;86.60;;;;;;5018471;28;20021;-61
2021/10/22 09:53:35;;;;;;;142.15;17.05;;;14.40;86.30;;;;;;5019642;28;20022;-61
2021/10/22 09:56:02;;;;;;;148.05;16.33;;;14.40;86.20;;;;;;5002995;28;20026;-61
2021/10/22 09:58:28;;;;;;;126.68;17.00;;;14.50;86.10;;;;;;5007212;28;20175;-61
2021/10/22 10:01:07;;;;;;;216.85;19.08;;;14.50;86.00;;;;;;5024460;28;20600;-60
2021/10/22 10:03:36;;;;;;;186.25;18.98;;;14.50;86.30;;;;;;5013131;28;20048;-61
2021/10/22 10:06:04;;;;;;;118.22;15.15;;;14.50;86.40;;;;;;5006658;28;20136;-61
2021/10/22 10:08:30;;;;;;;138.27;15.32;;;14.50;86.30;;;;;;5024513;28;20088;-60
2021/10/22 10:10:56;;;;;;;127.15;13.63;;;14.50;86.00;;;;;;5006531;28;20029;-61
2021/10/22 10:13:21;;;;;;;188.77;19.27;;;14.50;85.60;;;;;;5025503;28;20104;-61
2021/10/22 10:15:47;;;;;;;133.23;14.70;;;14.20;85.40;;;;;;5026407;28;20045;-61
2021/10/22 10:18:17;;;;;;;107.40;12.65;;;14.50;85.50;;;;;;5025920;28;20034;-61
2021/10/22 10:20:43;;;;;;;141.52;15.45;;;14.50;85.10;;;;;;5006580;28;20113;-60
2021/10/22 10:23:08;;;;;;;125.00;13.38;;;14.60;85.30;;;;;;5022211;28;20136;-62
2021/10/22 10:25:34;;;;;;;129.07;14.07;;;14.50;85.10;;;;;;5023685;28;20036;-61
2021/10/22 10:28:00;;;;;;;128.20;15.18;;;14.40;85.00;;;;;;5028173;28;20032;-61
2021/10/22 10:30:31;;;;;;;142.45;14.73;;;14.50;84.90;;;;;;5027246;28;20033;-60
2021/10/22 10:32:57;;;;;;;121.70;14.02;;;14.50;84.50;;;;;;5025275;28;20128;-60
2021/10/22 10:35:22;;;;;;;124.53;14.32;;;14.40;84.20;;;;;;5027260;28;20101;-61
2021/10/22 10:37:49;;;;;;;133.10;12.45;;;14.40;84.60;;;;;;5024551;28;20042;-61
2021/10/22 10:40:30;;;;;;;126.38;12.18;;;14.40;84.80;;;;;;5026028;28;20052;-61
2021/10/22 10:42:57;;;;;;;116.30;13.95;;;14.40;84.70;;;;;;5021079;28;20045;-62
2021/10/22 10:45:26;;;;;;;115.95;13.70;;;14.40;84.40;;;;;;5022824;28;20038;-62
2021/10/22 10:47:52;;;;;;;121.88;12.55;;;14.40;84.70;;;;;;5024316;28;20025;-62
2021/10/22 10:50:21;;;;;;;111.88;12.60;;;14.40;84.40;;;;;;5023232;28;20032;-60
2021/10/22 10:52:51;;;;;;;95.28;12.77;;;14.40;84.50;;;;;;5026190;28;20608;-61
2021/10/22 10:55:31;;;;;;;115.78;13.80;;;14.40;84.30;;;;;;5028589;28;20079;-60
2021/10/22 10:58:00;;;;;;;118.10;12.57;;;14.40;84.40;;;;;;5025682;28;20021;-61
2021/10/22 11:01:07;;;;;;;125.82;14.35;;;14.40;84.40;;;;;;5026291;28;20036;-60
2021/10/22 11:03:45;;;;;;;;;;;14.50;84.20;;;;;;5026101;28;20033;-61
2021/10/22 11:06:36;;;;;;;106.05;12.20;;;14.40;84.00;;;;;;5027826;28;19992;-61
2021/10/22 11:09:03;;;;;;;106.35;11.65;;;14.40;84.10;;;;;;5026149;28;20365;-61
2021/10/22 11:11:33;;;;;;;101.63;11.98;;;14.50;83.90;;;;;;5025758;28;20128;-61
2021/10/22 11:14:02;;;;;;;64.10;9.40;;;14.50;83.70;;;;;;5025779;28;20433;-61
2021/10/22 11:16:49;;;;;;;84.50;10.35;;;14.40;83.10;;;;;;5015439;28;20032;-60
2021/10/22 11:19:41;;;;;;;111.88;12.15;;;14.40;83.30;;;;;;5025910;28;20061;-63
2021/10/22 11:22:11;;;;;;;114.68;11.93;;;14.40;83.30;;;;;;5033871;28;20496;-61
2021/10/22 11:24:38;;;;;;;93.10;12.85;;;14.50;83.40;;;;;;5025522;28;20308;-61
2021/10/22 11:27:34;;;;;;;95.90;11.77;;;14.40;83.20;;;;;;5001782;28;20018;-60
2021/10/22 11:30:00;;;;;;;65.40;10.45;;;14.40;83.10;;;;;;5023833;28;20045;-61
2021/10/22 11:32:26;;;;;;;104.47;12.95;;;14.40;83.30;;;;;;4993490;28;20124;-61
2021/10/22 11:34:52;;;;;;;95.25;12.57;;;14.50;83.20;;;;;;5025222;28;20036;-62
2021/10/22 11:37:20;;;;;;;117.65;12.98;;;14.50;83.10;;;;;;5025356;28;20029;-61
2021/10/22 11:39:51;;;;;;;70.40;9.73;;;14.50;82.80;;;;;;5019506;28;20061;-61
2021/10/22 11:42:29;;;;;;;92.38;11.52;;;14.50;82.60;;;;;;5024430;28;20056;-61
2021/10/22 11:44:58;;;;;;;101.85;10.75;;;14.50;82.30;;;;;;5031903;28;20021;-61
2021/10/22 11:47:43;;;;;;;100.70;11.35;;;14.50;82.50;;;;;;5032645;28;20587;-61
2021/10/22 11:50:19;;;;;;;80.70;10.10;;;14.50;82.50;;;;;;5020525;28;20049;-61
2021/10/22 11:52:47;;;;;;;70.63;10.10;;;14.50;82.20;;;;;;5026604;28;20639;-60
2021/10/22 11:55:21;;;;;;;94.60;10.95;;;14.50;82.20;;;;;;5025887;28;20022;-61
2021/10/22 11:57:48;;;;;;;97.45;11.32;;;14.50;82.10;;;;;;5027966;28;20033;-60
2021/10/22 12:00:14;;;;;;;73.82;10.85;;;14.50;82.00;;;;;;5028626;28;20029;-61
2021/10/22 12:02:40;;;;;;;123.65;13.27;;;14.50;81.80;;;;;;5026092;28;20520;-61
2021/10/22 12:05:06;;;;;;;98.45;10.75;;;14.60;81.80;;;;;;5028566;28;20032;-61
2021/10/22 12:07:35;;;;;;;105.13;13.02;;;14.60;81.80;;;;;;5038039;28;20080;-61
2021/10/22 12:10:01;;;;;;;103.18;12.02;;;14.60;81.70;;;;;;5010335;28;20034;-61
2021/10/22 12:12:36;;;;;;;117.20;14.15;;;14.60;81.50;;;;;;5027837;28;20377;-61
2021/10/22 12:15:02;;;;;;;94.72;12.48;;;14.60;81.40;;;;;;5022980;28;20039;-61
2021/10/22 12:17:27;;;;;;;89.40;9.98;;;14.70;81.30;;;;;;5023924;28;20025;-61
2021/10/22 12:19:55;;;;;;;129.05;14.10;;;14.70;81.30;;;;;;5019200;28;20068;-61
2021/10/22 12:22:26;;;;;;;82.50;11.07;;;14.70;81.10;;;;;;5006176;28;20362;-61
2021/10/22 12:24:54;;;;;;;104.78;13.02;;;14.70;80.90;;;;;;5025183;28;20037;-63
2021/10/22 12:27:19;;;;;;;106.85;11.68;;;14.70;80.80;;;;;;5024167;28;20029;-61
2021/10/22 12:29:57;;;;;;;109.47;12.00;;;14.80;81.20;;;;;;5026347;28;20158;-61
2021/10/22 12:32:41;;;;;;;118.78;11.10;;;14.80;81.30;;;;;;5007351;28;20033;-60
2021/10/22 12:35:11;;;;;;;113.60;11.88;;;14.80;81.40;;;;;;5026780;28;20056;-61
2021/10/22 12:37:41;;;;;;;85.80;9.43;;;14.80;81.10;;;;;;5025928;28;20029;-60
2021/10/22 12:40:14;;;;;;;118.05;11.15;;;14.80;81.00;;;;;;4997423;28;20032;-61
2021/10/22 12:42:40;;;;;;;112.10;12.63;;;14.90;80.50;;;;;;5021632;28;20046;-61